createdAt,value
2022-11-27T00:01:34.725Z,32.08
2022-11-27T00:04:03.296Z,31.50
2022-11-27T00:06:31.749Z,30.85
2022-11-27T00:09:03.727Z,27.98
2022-11-27T00:11:32.376Z,26.62
2022-11-27T00:14:00.789Z,27.17
2022-11-27T00:16:29.066Z,25.70
2022-11-27T00:18:57.044Z,27.00
2022-11-27T00:21:31.151Z,31.82
2022-11-27T00:24:01.850Z,32.15
2022-11-27T00:26:35.979Z,28.62
2022-11-27T00:29:01.759Z,26.80
2022-11-27T00:31:32.807Z,25.75
2022-11-27T00:34:03.612Z,29.90
2022-11-27T00:36:32.939Z,30.97
2022-11-27T00:39:01.347Z,31.52
2022-11-27T00:41:30.378Z,31.52
2022-11-27T00:43:58.293Z,30.77
2022-11-27T00:46:29.801Z,31.50
2022-11-27T00:48:59.595Z,30.92
2022-11-27T00:51:28.879Z,30.68
2022-11-27T00:53:57.276Z,36.93
2022-11-27T00:56:28.781Z,32.23
2022-11-27T00:58:57.625Z,30.90
2022-11-27T01:01:33.969Z,29.87
2022-11-27T01:04:06.452Z,28.60
2022-11-27T01:06:37.486Z,28.32
2022-11-27T01:09:07.599Z,28.45
2022-11-27T01:11:39.600Z,27.40
2022-11-27T01:14:20.480Z,28.05
2022-11-27T01:16:49.105Z,27.37
2022-11-27T01:19:19.941Z,24.80
2022-11-27T01:21:48.737Z,25.15
2022-11-27T01:24:17.899Z,27.30
2022-11-27T01:26:50.238Z,30.40
2022-11-27T01:29:19.510Z,32.58
2022-11-27T01:31:50.505Z,30.85
2022-11-27T01:34:22.145Z,29.10
2022-11-27T01:36:50.685Z,28.15
2022-11-27T01:39:23.115Z,28.17
2022-11-27T01:41:54.680Z,29.92
2022-11-27T01:44:34.506Z,28.42
2022-11-27T01:47:12.095Z,26.00
2022-11-27T01:49:50.238Z,28.02
2022-11-27T01:52:32.306Z,28.05
2022-11-27T01:55:07.908Z,27.98
2022-11-27T01:57:49.011Z,28.73
2022-11-27T02:00:18.601Z,28.85
2022-11-27T02:02:47.279Z,30.52
2022-11-27T02:05:20.726Z,29.92
2022-11-27T02:07:50.342Z,29.20
2022-11-27T02:10:18.564Z,28.77
2022-11-27T02:13:06.656Z,30.30
2022-11-27T02:16:02.308Z,34.13
2022-11-27T02:18:44.286Z,32.23
2022-11-27T02:21:38.476Z,30.50
2022-11-27T02:24:49.225Z,29.18
2022-11-27T02:27:48.287Z,28.55
2022-11-27T02:30:17.427Z,30.27
2022-11-27T02:32:58.960Z,29.20
2022-11-27T02:35:32.326Z,28.35
2022-11-27T02:38:11.144Z,30.88
2022-11-27T02:40:55.104Z,30.92
2022-11-27T02:43:33.674Z,35.35
2022-11-27T02:46:04.536Z,32.00
2022-11-27T02:48:46.229Z,31.87
2022-11-27T02:51:17.806Z,30.90
2022-11-27T02:53:57.130Z,32.48
2022-11-27T02:56:28.778Z,27.48
2022-11-27T02:59:02.003Z,26.23
2022-11-27T03:01:35.577Z,24.47
2022-11-27T03:04:11.619Z,27.40
2022-11-27T03:06:52.126Z,25.55
2022-11-27T03:09:33.734Z,26.02
2022-11-27T03:12:04.076Z,26.48
2022-11-27T03:14:33.147Z,26.17
2022-11-27T03:17:27.478Z,26.27
2022-11-27T03:20:12.328Z,24.07
2022-11-27T03:22:39.875Z,23.80
2022-11-27T03:25:08.122Z,24.25
2022-11-27T03:27:40.890Z,23.25
2022-11-27T03:30:10.799Z,24.37
2022-11-27T03:32:38.508Z,24.85
2022-11-27T03:35:09.701Z,23.50
2022-11-27T03:37:39.382Z,22.62
2022-11-27T03:40:08.805Z,21.97
2022-11-27T03:43:18.949Z,22.67
2022-11-27T03:46:12.802Z,23.27
2022-11-27T03:48:59.750Z,23.05
2022-11-27T03:51:54.235Z,21.85
2022-11-27T03:54:59.818Z,22.75
2022-11-27T03:57:36.062Z,23.45
2022-11-27T04:00:08.127Z,22.48
2022-11-27T04:02:50.056Z,24.02
2022-11-27T04:05:18.388Z,23.55
2022-11-27T04:07:46.190Z,23.75
2022-11-27T04:10:13.777Z,25.72
2022-11-27T04:12:42.313Z,23.85
2022-11-27T04:15:11.362Z,24.27
2022-11-27T04:17:39.159Z,24.80
2022-11-27T04:20:08.294Z,23.75
2022-11-27T04:22:35.815Z,23.90
2022-11-27T04:25:03.923Z,23.60
2022-11-27T04:27:32.394Z,23.77
2022-11-27T04:29:59.763Z,24.18
2022-11-27T04:32:27.312Z,23.20
2022-11-27T04:34:54.841Z,26.50
2022-11-27T04:37:22.465Z,25.10
2022-11-27T04:39:50.251Z,25.70
2022-11-27T04:42:19.389Z,25.15
2022-11-27T04:44:46.744Z,24.92
2022-11-27T04:47:14.329Z,35.20
2022-11-27T04:49:41.939Z,33.63
2022-11-27T04:52:10.546Z,33.80
2022-11-27T04:54:38.495Z,33.38
2022-11-27T04:57:06.361Z,34.85
2022-11-27T04:59:34.408Z,34.13
2022-11-27T05:02:02.075Z,33.08
2022-11-27T05:04:29.802Z,32.53
2022-11-27T05:06:57.479Z,27.05
2022-11-27T05:09:25.245Z,23.67
2022-11-27T05:11:52.918Z,23.12
2022-11-27T05:14:22.337Z,24.12
2022-11-27T05:16:56.710Z,24.40
2022-11-27T05:19:27.290Z,26.02
2022-11-27T05:21:54.912Z,29.07
2022-11-27T05:24:26.047Z,27.60
2022-11-27T05:26:55.306Z,27.58
2022-11-27T05:29:25.347Z,31.85
2022-11-27T05:31:53.416Z,32.20
2022-11-27T05:34:21.502Z,32.75
2022-11-27T05:36:48.936Z,46.95
2022-11-27T05:39:16.574Z,37.70
2022-11-27T05:41:44.205Z,33.83
2022-11-27T05:44:15.751Z,34.30
2022-11-27T05:46:43.788Z,42.40
2022-11-27T05:49:14.839Z,42.70
2022-11-27T05:51:49.135Z,37.23
2022-11-27T05:54:12.435Z,48.75
2022-11-27T05:56:39.963Z,47.23
2022-11-27T05:59:09.499Z,52.88
2022-11-27T06:01:37.142Z,52.35
